»·PEaware :: N122SQ KSEZ-KFMN

N122SQ :: KSEZ-KFMN

FLIGHT INFORMATION

Flight Status: Arrived
Operator: Privately registered:
United States
More flights under this callsign
Pilot: Gabor H. (24209)
Aircraft: CIRRUS SR-22 TURBO
(S22T)
More flights by this aircraft type
Origin: KSEZ Sedona
United States
Destination: KFMN Four Corners Regl
United States
More flights between these airports :: More routes between these airports
Route:
File this flight plan on PilotEdge
Remarks:
Altitude:
(Current/Filed)
15,500ft
Speed:
(Current/Filed)
160kts
Departed: 26-Sep-23 06:23 AM
Arrived: 26-Sep-23 07:32 AM
Distance/Time
Traveled:
207nm/1:09
Distance/Time
To Go:
Arrived

Flight Plot

Page will automatically refresh every two minutes.

Flight plan parsing failed; only flown route is shown


Map Options




Map Legend


Flown Route
Filed Route
Departure Airport
Arrival Airport
Navaid (VOR, NDB)
Fix

Horizontal Profiles

Position Reports

Time Latitude Longitude Heading Altitude Ground
Speed
26-Sep-23 06:14 34.849068 -111.790755 45 4789ft 0kts
26-Sep-23 06:15 34.849068 -111.790755 45 4789ft 0kts
26-Sep-23 06:15 34.849068 -111.790755 45 4789ft 0kts
26-Sep-23 06:16 34.849068 -111.790755 45 4789ft 0kts
26-Sep-23 06:17 34.849068 -111.790755 45 4789ft 0kts
26-Sep-23 06:19 34.849068 -111.790755 45 4789ft 0kts
26-Sep-23 06:19 34.849068 -111.790755 45 4789ft 0kts
26-Sep-23 06:20 34.847630 -111.790871 224 4781ft 22kts
26-Sep-23 06:21 34.845181 -111.793176 164 4759ft 10kts
26-Sep-23 06:22 34.855673 -111.778586 45 5071ft 106kts
26-Sep-23 06:23 34.876670 -111.746341 61 5960ft 134kts
26-Sep-23 06:24 34.894180 -111.704174 60 7033ft 137kts
26-Sep-23 06:25 34.912363 -111.662472 60 8019ft 147kts
26-Sep-23 06:26 34.931797 -111.617893 60 9002ft 151kts
26-Sep-23 06:27 34.951857 -111.571922 62 9942ft 156kts
26-Sep-23 06:28 34.972476 -111.524546 63 10888ft 161kts
26-Sep-23 06:29 34.993709 -111.475681 63 11838ft 166kts
26-Sep-23 06:30 35.015491 -111.425391 62 12777ft 169kts
26-Sep-23 06:31 35.037543 -111.374492 61 13733ft 171kts
26-Sep-23 06:32 35.060040 -111.322536 61 14650ft 174kts
26-Sep-23 06:33 35.082874 -111.269699 60 15514ft 178kts
26-Sep-23 06:34 35.107400 -111.212814 61 15538ft 193kts
26-Sep-23 06:35 35.132378 -111.154768 61 15515ft 192kts
26-Sep-23 06:36 35.157244 -111.096925 61 15498ft 192kts
26-Sep-23 06:37 35.182089 -111.039034 62 15499ft 192kts
26-Sep-23 06:38 35.206815 -110.981312 62 15499ft 192kts
26-Sep-23 06:39 35.231606 -110.923340 62 15500ft 192kts
26-Sep-23 06:40 35.256448 -110.865164 62 15499ft 193kts
26-Sep-23 06:41 35.281190 -110.807107 62 15500ft 193kts
26-Sep-23 06:42 35.305931 -110.748949 62 15500ft 192kts
26-Sep-23 06:43 35.330423 -110.691290 62 15500ft 191kts
26-Sep-23 06:44 35.354884 -110.633595 62 15500ft 191kts
26-Sep-23 06:45 35.379277 -110.575960 62 15500ft 190kts
26-Sep-23 06:46 35.407898 -110.521509 52 15500ft 191kts
26-Sep-23 06:47 35.439446 -110.469049 52 15500ft 191kts
26-Sep-23 06:48 35.470821 -110.416751 52 15501ft 191kts
26-Sep-23 06:49 35.502233 -110.364312 52 15501ft 191kts
26-Sep-23 06:50 35.533585 -110.311896 53 15498ft 191kts
26-Sep-23 06:51 35.564954 -110.259385 53 15498ft 190kts
26-Sep-23 06:52 35.596212 -110.206973 53 15499ft 190kts
26-Sep-23 06:53 35.627406 -110.154587 53 15500ft 190kts
26-Sep-23 06:54 35.658457 -110.102348 53 15524ft 189kts
26-Sep-23 06:55 35.689618 -110.049857 53 15547ft 189kts
26-Sep-23 06:56 35.720591 -109.997608 53 15570ft 189kts
26-Sep-23 06:57 35.751559 -109.945284 53 15594ft 189kts
26-Sep-23 06:58 35.782552 -109.892831 53 15612ft 189kts
26-Sep-23 06:59 35.813557 -109.840287 53 15609ft 190kts
26-Sep-23 07:00 35.844626 -109.787560 53 15612ft 190kts
26-Sep-23 07:01 35.875660 -109.734799 53 15610ft 190kts
26-Sep-23 07:02 35.906718 -109.681935 53 15611ft 190kts
26-Sep-23 07:03 35.937833 -109.628873 53 15611ft 190kts
26-Sep-23 07:04 35.968807 -109.575993 53 15611ft 190kts
26-Sep-23 07:05 35.999702 -109.523186 53 15608ft 193kts
26-Sep-23 07:06 36.031562 -109.468599 55 15659ft 189kts
26-Sep-23 07:07 36.063088 -109.414354 52 15553ft 198kts
26-Sep-23 07:08 36.094436 -109.360534 54 15620ft 191kts
26-Sep-23 07:09 36.125848 -109.306421 54 15582ft 194kts
26-Sep-23 07:10 36.157195 -109.252331 55 15632ft 190kts
26-Sep-23 07:11 36.188516 -109.198392 54 15581ft 194kts
26-Sep-23 07:12 36.220279 -109.143500 54 15561ft 193kts
26-Sep-23 07:13 36.251444 -109.089489 53 15538ft 195kts
26-Sep-23 07:14 36.283082 -109.034683 51 15511ft 198kts
26-Sep-23 07:15 36.314353 -108.980275 53 15523ft 190kts
26-Sep-23 07:16 36.344995 -108.926984 53 15527ft 189kts
26-Sep-23 07:17 36.375466 -108.873887 53 15528ft 190kts
26-Sep-23 07:18 36.406199 -108.820228 53 15373ft 198kts
26-Sep-23 07:19 36.439535 -108.761908 54 14523ft 211kts
26-Sep-23 07:20 36.473493 -108.702485 54 13619ft 211kts
26-Sep-23 07:21 36.507314 -108.643166 55 12722ft 209kts
26-Sep-23 07:22 36.540751 -108.584388 55 11838ft 209kts
26-Sep-23 07:23 36.574109 -108.525631 55 10950ft 207kts
26-Sep-23 07:24 36.606950 -108.467727 55 10076ft 203kts
26-Sep-23 07:25 36.639199 -108.410748 55 9217ft 199kts
26-Sep-23 07:26 36.670795 -108.354839 56 8374ft 195kts
26-Sep-23 07:27 36.701650 -108.300145 56 7549ft 189kts
26-Sep-23 07:28 36.725813 -108.246683 89 6745ft 154kts
26-Sep-23 07:29 36.724570 -108.204074 87 6527ft 112kts
26-Sep-23 07:30 36.742096 -108.208932 267 5750ft 104kts
26-Sep-23 07:31 36.740782 -108.226305 180 5505ft 0kts
26-Sep-23 07:32 36.740286 -108.226167 122 5505ft 11kts
26-Sep-23 07:33 36.739556 -108.225579 93 5505ft 0kts
26-Sep-23 07:34 36.739556 -108.225579 93 5505ft 0kts
26-Sep-23 07:35 36.739556 -108.225579 93 5505ft 0kts
26-Sep-23 07:36 36.739556 -108.225579 93 5505ft 0kts
26-Sep-23 07:37 36.739556 -108.225579 93 5505ft 0kts
26-Sep-23 07:38 36.739556 -108.225579 93 5505ft 0kts
26-Sep-23 07:39 36.739556 -108.225579 93 5505ft 0kts

Navigation Log

Ident Type
Flight plan parsing failed, navigation log unavailable